Time;durP1;ratioP1;P1;durP2;ratioP2;P2;SDS_P1;SDS_P2;PMS_P1;PMS_P2;Temp;Humidity;BMP_temperature;BMP_pressure;BME280_temperature;BME280_humidity;BME280_pressure;Samples;Min_cycle;Max_cycle;Signal;HPM_P1;HPM_P2
2022/08/22 00:01:33;;;;;;;9.32;3.10;;;;;;;;;;5046406;28;20049;-75
2022/08/22 00:04:49;;;;;;;8.23;3.05;;;;;;;;;;5029845;28;20278;-76
2022/08/22 00:07:37;;;;;;;8.02;3.00;;;;;;;;;;4985885;28;20086;-75
2022/08/22 00:10:13;;;;;;;10.20;3.10;;;;;;;;;;4953071;28;20198;-75
2022/08/22 00:12:51;;;;;;;6.85;2.90;;;;;;;;;;4949411;28;20242;-73
2022/08/22 00:15:46;;;;;;;5.13;2.50;;;;;;;;;;4948712;29;20043;-74
2022/08/22 00:18:28;;;;;;;10.15;2.58;;;;;;;;;;4949328;28;20054;-75
2022/08/22 00:21:10;;;;;;;9.82;2.92;;;;;;;;;;4986678;28;20057;-74
2022/08/22 00:23:53;;;;;;;7.32;2.90;;;;;;;;;;5012377;28;20095;-74
2022/08/22 00:26:41;;;;;;;5.57;2.53;;;;;;;;;;5025767;28;20757;-73
2022/08/22 00:29:12;;;;;;;7.32;2.58;;;;;;;;;;5025660;28;20256;-73
2022/08/22 00:31:47;;;;;;;7.72;2.90;;;;;;;;;;5026351;28;20560;-75
2022/08/22 00:34:45;;;;;;;11.73;2.80;;;;;;;;;;5025006;28;20140;-73
2022/08/22 00:37:18;;;;;;;7.78;2.78;;;;;;;;;;4987275;28;20100;-74
2022/08/22 00:40:23;;;;;;;7.00;2.67;;;;;;;;;;4986933;28;20214;-74
2022/08/22 00:42:48;;;;;;;;;;;;;;;;;;4989317;28;20061;-73
2022/08/22 00:46:05;;;;;;;8.20;2.83;;;;;;;;;;4989020;28;19988;-73
2022/08/22 00:48:43;;;;;;;11.02;2.85;;;;;;;;;;4891448;29;20052;-71
2022/08/22 00:51:21;;;;;;;9.15;2.53;;;;;;;;;;4875825;29;20087;-73
2022/08/22 00:53:53;;;;;;;7.25;2.75;;;;;;;;;;4889908;29;20296;-73
2022/08/22 00:56:51;;;;;;;7.30;2.80;;;;;;;;;;4890271;29;20053;-74
2022/08/22 00:59:36;;;;;;;8.50;3.10;;;;;;;;;;4873924;29;20057;-75
2022/08/22 01:02:35;;;;;;;9.18;3.72;;;;;;;;;;4872057;29;20601;-75
2022/08/22 01:05:13;;;;;;;11.98;3.78;;;;;;;;;;4872782;29;20139;-72
2022/08/22 01:08:00;;;;;;;7.00;3.60;;;;;;;;;;4872356;29;20053;-75
2022/08/22 01:10:57;;;;;;;8.32;3.90;;;;;;;;;;4866530;29;20049;-76
2022/08/22 01:13:50;;;;;;;8.35;3.97;;;;;;;;;;4884462;29;20108;-74
2022/08/22 01:16:16;;;;;;;9.15;4.07;;;;;;;;;;4928381;29;20111;-73
2022/08/22 01:19:10;;;;;;;10.68;3.90;;;;;;;;;;4976891;28;20059;-74
2022/08/22 01:22:26;;;;;;;8.30;4.03;;;;;;;;;;5086785;28;20497;-73
2022/08/22 01:25:29;;;;;;;7.20;3.88;;;;;;;;;;5087558;28;20070;-72
2022/08/22 01:28:32;;;;;;;9.40;3.63;;;;;;;;;;5087373;28;20056;-74
2022/08/22 01:31:41;;;;;;;7.60;3.70;;;;;;;;;;5068396;28;20051;-73
2022/08/22 01:34:44;;;;;;;8.40;4.10;;;;;;;;;;5088207;28;20048;-73
2022/08/22 01:37:28;;;;;;;10.52;4.13;;;;;;;;;;5086620;28;20052;-74
2022/08/22 01:40:21;;;;;;;8.52;4.00;;;;;;;;;;5087063;28;20489;-73
2022/08/22 01:43:00;;;;;;;7.55;4.07;;;;;;;;;;5086654;28;20148;-72
2022/08/22 01:46:07;;;;;;;8.45;3.72;;;;;;;;;;5086921;28;20505;-74
2022/08/22 01:48:59;;;;;;;12.23;4.40;;;;;;;;;;5083099;28;20119;-73
2022/08/22 01:51:59;;;;;;;7.85;3.85;;;;;;;;;;5057167;28;20052;-72
2022/08/22 01:54:53;;;;;;;9.60;3.65;;;;;;;;;;5068878;28;20040;-73
2022/08/22 01:57:21;;;;;;;7.05;3.67;;;;;;;;;;5087816;28;20055;-73
2022/08/22 01:59:54;;;;;;;7.40;4.13;;;;;;;;;;5085224;28;20073;-73
2022/08/22 02:02:41;;;;;;;10.23;3.65;;;;;;;;;;5074654;28;20345;-74
2022/08/22 02:05:26;;;;;;;5.28;3.60;;;;;;;;;;5083664;28;20087;-72
2022/08/22 02:07:57;;;;;;;;;;;;;;;;;;5065722;28;20055;-73
2022/08/22 02:10:47;;;;;;;7.35;3.85;;;;;;;;;;5067041;28;19924;-73
2022/08/22 02:13:12;;;;;;;9.02;4.18;;;;;;;;;;5077712;28;20378;-73
2022/08/22 02:15:38;;;;;;;6.18;3.67;;;;;;;;;;5086827;28;20048;-74
2022/08/22 02:18:04;;;;;;;8.80;3.55;;;;;;;;;;5086556;28;20059;-73
2022/08/22 02:20:47;;;;;;;8.98;3.63;;;;;;;;;;5086916;28;20047;-72
2022/08/22 02:23:42;;;;;;;6.77;3.37;;;;;;;;;;5097547;28;20059;-72
2022/08/22 02:26:23;;;;;;;12.30;4.40;;;;;;;;;;5107151;28;20276;-73
2022/08/22 02:29:16;;;;;;;8.88;3.53;;;;;;;;;;5106739;28;20039;-74
2022/08/22 02:35:53;;;;;;;8.05;3.75;;;;;;;;;;5743982;22;20421;-64
2022/08/22 02:38:48;;;;;;;9.55;3.55;;;;;;;;;;5031707;28;20494;-66
2022/08/22 02:41:43;;;;;;;8.32;3.90;;;;;;;;;;5031942;28;20041;-67
2022/08/22 02:44:18;;;;;;;8.25;3.72;;;;;;;;;;5031590;28;20126;-64
2022/08/22 02:47:10;;;;;;;6.07;3.47;;;;;;;;;;5031907;28;20092;-64
2022/08/22 02:50:09;;;;;;;9.13;3.75;;;;;;;;;;5032183;28;20048;-66
2022/08/22 02:52:53;;;;;;;7.55;3.65;;;;;;;;;;5025148;28;20111;-64
2022/08/22 02:55:27;;;;;;;7.63;3.28;;;;;;;;;;5031408;28;20501;-63
2022/08/22 02:57:58;;;;;;;8.88;3.53;;;;;;;;;;5030641;28;20048;-63
2022/08/22 03:00:29;;;;;;;8.70;3.88;;;;;;;;;;5031525;28;20049;-65
2022/08/22 03:02:57;;;;;;;10.00;3.70;;;;;;;;;;5031679;28;20049;-64
2022/08/22 03:05:44;;;;;;;10.80;3.85;;;;;;;;;;5031720;28;20053;-64
2022/08/22 03:08:20;;;;;;;9.18;3.40;;;;;;;;;;5031402;28;20557;-68
2022/08/22 03:11:11;;;;;;;9.80;3.85;;;;;;;;;;5031506;28;20453;-65
2022/08/22 03:14:06;;;;;;;10.75;3.63;;;;;;;;;;5024706;28;20054;-65
2022/08/22 03:16:56;;;;;;;8.15;3.40;;;;;;;;;;5013154;28;20053;-66
2022/08/22 03:19:40;;;;;;;8.82;3.70;;;;;;;;;;5012673;28;20113;-65
2022/08/22 03:22:08;;;;;;;;;;;;;;;;;;5012086;28;20095;-64
2022/08/22 03:24:49;;;;;;;9.68;3.65;;;;;;;;;;5011709;28;20371;-64
2022/08/22 03:27:23;;;;;;;11.95;3.65;;;;;;;;;;5012278;28;20054;-66
2022/08/22 03:29:56;;;;;;;11.68;3.83;;;;;;;;;;5027111;28;20539;-63
2022/08/22 03:32:45;;;;;;;10.65;3.67;;;;;;;;;;5012056;28;20065;-65
2022/08/22 03:35:23;;;;;;;9.23;3.55;;;;;;;;;;5013829;28;20518;-64
2022/08/22 03:37:53;;;;;;;9.00;3.88;;;;;;;;;;5032467;28;20053;-66
2022/08/22 03:40:26;;;;;;;9.35;3.70;;;;;;;;;;5035490;28;20049;-66
2022/08/22 03:43:10;;;;;;;16.50;4.03;;;;;;;;;;5035603;28;20500;-65
2022/08/22 03:46:20;;;;;;;10.70;4.13;;;;;;;;;;5035820;28;20297;-65
2022/08/22 03:49:01;;;;;;;7.57;3.55;;;;;;;;;;5020040;28;20050;-66
2022/08/22 03:51:59;;;;;;;7.55;3.78;;;;;;;;;;5035584;28;20063;-68
2022/08/22 03:55:10;;;;;;;11.55;4.00;;;;;;;;;;5034588;28;20115;-64
2022/08/22 03:58:03;;;;;;;13.27;3.58;;;;;;;;;;5035171;28;20053;-64
2022/08/22 04:00:35;;;;;;;9.82;3.75;;;;;;;;;;5034959;28;20502;-63
2022/08/22 04:03:40;;;;;;;8.77;3.70;;;;;;;;;;5035183;28;20075;-64
2022/08/22 04:06:05;;;;;;;;;;;;;;;;;;5034089;28;20061;-68
2022/08/22 04:09:20;;;;;;;9.73;3.65;;;;;;;;;;5035716;28;19921;-64
2022/08/22 04:11:54;;;;;;;12.38;4.32;;;;;;;;;;5022245;28;20089;-64
2022/08/22 04:14:59;;;;;;;8.88;4.05;;;;;;;;;;5035378;28;20132;-67
2022/08/22 04:17:48;;;;;;;9.60;3.72;;;;;;;;;;4977331;28;20047;-65
2022/08/22 04:20:41;;;;;;;9.70;3.70;;;;;;;;;;4957201;28;20087;-65
2022/08/22 04:23:35;;;;;;;11.25;3.97;;;;;;;;;;4956213;28;20051;-65
2022/08/22 04:26:07;;;;;;;8.95;3.80;;;;;;;;;;4973837;28;20057;-64
2022/08/22 04:28:35;;;;;;;8.32;3.70;;;;;;;;;;4974433;28;20097;-66
2022/08/22 04:31:10;;;;;;;6.60;3.42;;;;;;;;;;4973694;28;20066;-63
2022/08/22 04:33:44;;;;;;;11.50;3.95;;;;;;;;;;4973532;28;20054;-67
2022/08/22 04:36:29;;;;;;;7.28;3.80;;;;;;;;;;4973656;28;20051;-65
2022/08/22 04:39:06;;;;;;;9.40;3.95;;;;;;;;;;4973287;28;20051;-65
2022/08/22 04:41:40;;;;;;;7.70;3.63;;;;;;;;;;4973172;28;20150;-66
2022/08/22 04:44:14;;;;;;;9.18;4.15;;;;;;;;;;4973165;28;20046;-64
2022/08/22 04:46:54;;;;;;;;;;;;;;;;;;4973431;28;20472;-66
2022/08/22 04:49:33;;;;;;;14.88;4.75;;;;;;;;;;4973880;28;20445;-66
2022/08/22 04:52:30;;;;;;;8.93;3.90;;;;;;;;;;4976247;28;20475;-65
2022/08/22 04:55:27;;;;;;;9.63;3.78;;;;;;;;;;5015062;28;20054;-69
2022/08/22 04:58:21;;;;;;;7.53;4.03;;;;;;;;;;5016532;28;20050;-65
2022/08/22 05:01:07;;;;;;;;;;;;;;;;;;5015799;28;20092;-71
2022/08/22 05:03:38;;;;;;;6.88;3.80;;;;;;;;;;5014626;28;19922;-64
2022/08/22 05:06:06;;;;;;;10.85;3.90;;;;;;;;;;5014449;28;20073;-66
2022/08/22 05:08:35;;;;;;;8.77;4.03;;;;;;;;;;5014120;28;20051;-64
2022/08/22 05:11:06;;;;;;;12.20;4.40;;;;;;;;;;5014540;28;20049;-65
2022/08/22 05:13:37;;;;;;;8.30;4.03;;;;;;;;;;5013902;28;20064;-64
2022/08/22 05:16:09;;;;;;;9.00;3.97;;;;;;;;;;5013850;28;20113;-65
2022/08/22 05:18:42;;;;;;;12.93;4.50;;;;;;;;;;5015130;28;20078;-65
2022/08/22 05:21:10;;;;;;;10.27;4.57;;;;;;;;;;5016439;28;20668;-65
2022/08/22 05:23:45;;;;;;;7.18;3.67;;;;;;;;;;5014524;28;20045;-66
2022/08/22 05:26:12;;;;;;;8.13;3.75;;;;;;;;;;5032366;28;20104;-67
2022/08/22 05:28:44;;;;;;;8.27;4.05;;;;;;;;;;5034088;28;20060;-68
2022/08/22 05:31:17;;;;;;;10.65;3.97;;;;;;;;;;5014385;28;20050;-65
2022/08/22 05:33:49;;;;;;;13.50;4.53;;;;;;;;;;5014284;28;20050;-68
2022/08/22 05:36:21;;;;;;;9.93;3.92;;;;;;;;;;5013387;28;20522;-65
2022/08/22 05:38:53;;;;;;;11.25;4.38;;;;;;;;;;5013951;28;20369;-64
2022/08/22 05:41:25;;;;;;;9.77;4.18;;;;;;;;;;5014030;28;20045;-65
2022/08/22 05:43:53;;;;;;;8.32;3.70;;;;;;;;;;5014261;28;20128;-71
2022/08/22 05:46:24;;;;;;;8.93;3.60;;;;;;;;;;5018551;28;20050;-66
2022/08/22 05:48:57;;;;;;;8.93;3.65;;;;;;;;;;5014838;28;20401;-66
2022/08/22 05:51:33;;;;;;;13.45;3.58;;;;;;;;;;5013453;28;20473;-64
2022/08/22 05:54:15;;;;;;;12.73;3.90;;;;;;;;;;5013198;28;20411;-67
2022/08/22 05:56:46;;;;;;;7.78;3.78;;;;;;;;;;5012804;28;20499;-66
2022/08/22 05:59:26;;;;;;;11.57;4.15;;;;;;;;;;5013887;28;20066;-66
2022/08/22 06:02:11;;;;;;;7.75;3.60;;;;;;;;;;5014281;28;20124;-64
2022/08/22 06:04:46;;;;;;;12.60;3.85;;;;;;;;;;5015789;28;20038;-66
2022/08/22 06:07:27;;;;;;;9.57;4.00;;;;;;;;;;4996753;28;20054;-64
2022/08/22 06:10:15;;;;;;;11.10;4.03;;;;;;;;;;5014346;28;20045;-66
2022/08/22 06:12:59;;;;;;;11.23;4.07;;;;;;;;;;5025572;28;20124;-69
2022/08/22 06:15:44;;;;;;;10.35;4.18;;;;;;;;;;5033431;28;20045;-64
2022/08/22 06:18:15;;;;;;;8.50;3.83;;;;;;;;;;5048339;28;20072;-63
2022/08/22 06:20:46;;;;;;;9.13;4.43;;;;;;;;;;5033164;28;20140;-63
2022/08/22 06:23:20;;;;;;;8.75;3.72;;;;;;;;;;5033868;28;20418;-65
2022/08/22 06:25:48;;;;;;;9.57;3.83;;;;;;;;;;5033582;28;20045;-64
2022/08/22 06:28:22;;;;;;;13.05;4.13;;;;;;;;;;5033819;28;20322;-71
2022/08/22 06:30:52;;;;;;;10.07;3.97;;;;;;;;;;5033517;28;20057;-64
2022/08/22 06:33:26;;;;;;;10.32;4.00;;;;;;;;;;5033305;28;20501;-64
2022/08/22 06:38:58;;;;;;;9.15;4.10;;;;;;;;;;5031757;28;20049;-68
2022/08/22 06:41:27;;;;;;;10.05;3.70;;;;;;;;;;5032682;28;20077;-64
2022/08/22 06:43:54;;;;;;;11.15;3.83;;;;;;;;;;5032312;28;20128;-68
2022/08/22 06:46:22;;;;;;;11.93;4.25;;;;;;;;;;5031846;28;20181;-67
2022/08/22 06:48:48;;;;;;;11.98;4.30;;;;;;;;;;5032656;28;20045;-65
2022/08/22 06:51:17;;;;;;;14.50;4.30;;;;;;;;;;5034220;28;20546;-64
2022/08/22 06:53:52;;;;;;;17.20;3.90;;;;;;;;;;5014472;28;20054;-67
2022/08/22 06:56:28;;;;;;;14.15;3.83;;;;;;;;;;5014589;28;20407;-65
2022/08/22 06:58:57;;;;;;;12.88;4.00;;;;;;;;;;5013053;28;20046;-64
2022/08/22 07:01:34;;;;;;;19.92;4.22;;;;;;;;;;4995040;28;20048;-68
2022/08/22 07:04:09;;;;;;;15.25;4.30;;;;;;;;;;4994719;28;20525;-67
2022/08/22 07:06:43;;;;;;;12.80;4.03;;;;;;;;;;5012308;28;20091;-65
2022/08/22 07:09:36;;;;;;;12.57;3.95;;;;;;;;;;5012202;28;20050;-64
2022/08/22 07:12:18;;;;;;;12.55;3.95;;;;;;;;;;5016875;28;20137;-68
2022/08/22 07:14:51;;;;;;;16.92;4.32;;;;;;;;;;5032571;28;20045;-65
2022/08/22 07:17:27;;;;;;;11.52;3.70;;;;;;;;;;5014318;28;20069;-65
2022/08/22 07:20:04;;;;;;;15.88;4.07;;;;;;;;;;5032246;28;20052;-66
2022/08/22 07:22:33;;;;;;;12.65;3.80;;;;;;;;;;5032167;28;20049;-64
2022/08/22 07:25:09;;;;;;;13.48;3.90;;;;;;;;;;5032061;28;20055;-65
2022/08/22 07:27:54;;;;;;;18.58;3.90;;;;;;;;;;5047497;28;20512;-65
2022/08/22 07:30:22;;;;;;;12.90;3.90;;;;;;;;;;5012522;28;20042;-66
2022/08/22 07:32:56;;;;;;;12.00;3.38;;;;;;;;;;5011717;28;20458;-64
2022/08/22 07:35:27;;;;;;;11.18;3.30;;;;;;;;;;5012126;28;20062;-64
2022/08/22 07:38:12;;;;;;;6.25;2.58;;;;;;;;;;5012200;28;20056;-67
2022/08/22 07:40:44;;;;;;;15.18;2.83;;;;;;;;;;5012479;28;20125;-67
2022/08/22 07:43:18;;;;;;;13.48;2.88;;;;;;;;;;5014580;28;20062;-66
2022/08/22 07:45:59;;;;;;;9.80;2.70;;;;;;;;;;5021195;28;20517;-66
2022/08/22 07:48:25;;;;;;;8.65;2.90;;;;;;;;;;5031935;28;20077;-64
2022/08/22 07:51:01;;;;;;;13.90;2.65;;;;;;;;;;5031929;28;20470;-69
2022/08/22 07:53:57;;;;;;;10.27;2.95;;;;;;;;;;5031719;28;20050;-66
2022/08/22 07:56:45;;;;;;;5.20;2.38;;;;;;;;;;5047603;28;20132;-65
2022/08/22 07:59:17;;;;;;;10.07;2.60;;;;;;;;;;5032086;28;20077;-70
2022/08/22 08:01:52;;;;;;;4.68;2.08;;;;;;;;;;5032718;28;20048;-65
2022/08/22 08:04:23;;;;;;;6.15;2.55;;;;;;;;;;5032876;28;20128;-68
2022/08/22 08:06:51;;;;;;;7.55;2.00;;;;;;;;;;5032584;28;20050;-68
2022/08/22 08:09:18;;;;;;;4.93;1.63;;;;;;;;;;5032613;28;20491;-67
2022/08/22 08:11:47;;;;;;;4.75;1.80;;;;;;;;;;5032606;28;20045;-65
2022/08/22 08:14:15;;;;;;;5.43;1.80;;;;;;;;;;5032509;28;20379;-66
2022/08/22 08:16:50;;;;;;;3.58;1.52;;;;;;;;;;5014292;28;20120;-64
2022/08/22 08:19:18;;;;;;;3.83;1.42;;;;;;;;;;5015529;28;20577;-71
2022/08/22 08:21:52;;;;;;;4.95;1.58;;;;;;;;;;5035381;28;20077;-67
2022/08/22 08:24:29;;;;;;;4.13;1.70;;;;;;;;;;5036212;28;20124;-66
2022/08/22 08:30:01;;;;;;;6.47;1.60;;;;;;;;;;5036620;28;20457;-69
2022/08/22 08:32:32;;;;;;;4.45;1.50;;;;;;;;;;5036835;28;20041;-69
2022/08/22 08:35:11;;;;;;;5.30;1.75;;;;;;;;;;5018001;28;20077;-67
2022/08/22 08:37:44;;;;;;;5.50;1.75;;;;;;;;;;5035285;28;20437;-65
2022/08/22 08:40:30;;;;;;;6.82;1.80;;;;;;;;;;5035175;28;20049;-71
2022/08/22 08:43:33;;;;;;;8.02;1.90;;;;;;;;;;5004148;28;20125;-66
2022/08/22 08:46:13;;;;;;;5.43;1.88;;;;;;;;;;5025343;28;20107;-67
2022/08/22 08:49:04;;;;;;;6.63;2.08;;;;;;;;;;5034648;28;20049;-70
2022/08/22 08:51:55;;;;;;;5.70;1.63;;;;;;;;;;5034789;28;20417;-68
2022/08/22 08:54:42;;;;;;;9.07;2.10;;;;;;;;;;5033852;28;20045;-67
2022/08/22 08:57:45;;;;;;;4.68;1.90;;;;;;;;;;5034355;28;20083;-65
2022/08/22 09:00:40;;;;;;;5.53;2.17;;;;;;;;;;5034445;28;20430;-66
2022/08/22 09:03:18;;;;;;;4.43;1.60;;;;;;;;;;5031597;28;20487;-65
2022/08/22 09:06:05;;;;;;;4.95;2.00;;;;;;;;;;5035115;28;20077;-66
2022/08/22 09:08:47;;;;;;;7.85;3.67;;;;;;;;;;5034283;28;20502;-67
2022/08/22 09:11:30;;;;;;;8.50;2.35;;;;;;;;;;5034322;28;20057;-66
2022/08/22 09:14:15;;;;;;;6.53;1.70;;;;;;;;;;5017167;28;20052;-65
2022/08/22 09:16:56;;;;;;;5.90;1.92;;;;;;;;;;5035187;28;20075;-68
2022/08/22 09:19:28;;;;;;;7.35;1.80;;;;;;;;;;5033073;28;20049;-66
2022/08/22 09:22:16;;;;;;;8.00;1.77;;;;;;;;;;5033074;28;20053;-66
2022/08/22 09:24:51;;;;;;;7.47;1.88;;;;;;;;;;5034042;28;20132;-65
2022/08/22 09:27:28;;;;;;;4.35;1.55;;;;;;;;;;5029978;28;20053;-67
2022/08/22 09:30:11;;;;;;;5.47;1.60;;;;;;;;;;5013772;28;20515;-64
2022/08/22 09:33:05;;;;;;;4.90;1.70;;;;;;;;;;5014316;28;20411;-66
2022/08/22 09:35:31;;;;;;;5.00;1.73;;;;;;;;;;5014008;28;20050;-64
2022/08/22 09:38:17;;;;;;;6.60;1.77;;;;;;;;;;5030165;28;20050;-67
2022/08/22 09:41:09;;;;;;;3.45;1.52;;;;;;;;;;5024467;28;20081;-67
2022/08/22 09:43:53;;;;;;;5.65;1.60;;;;;;;;;;5034700;28;20049;-67
2022/08/22 09:46:25;;;;;;;8.55;1.35;;;;;;;;;;5013609;28;20049;-66
2022/08/22 09:49:03;;;;;;;7.82;1.50;;;;;;;;;;5013845;28;20073;-66
2022/08/22 09:51:38;;;;;;;4.75;1.70;;;;;;;;;;5013746;28;20074;-66
2022/08/22 09:54:21;;;;;;;3.25;1.30;;;;;;;;;;5013943;28;20108;-69
2022/08/22 09:56:53;;;;;;;5.45;2.45;;;;;;;;;;5019032;28;20041;-66
2022/08/22 09:59:28;;;;;;;4.55;1.40;;;;;;;;;;5032840;28;20375;-66
2022/08/22 10:02:22;;;;;;;4.97;1.50;;;;;;;;;;5018892;28;20041;-69
2022/08/22 10:05:21;;;;;;;7.22;2.08;;;;;;;;;;5011812;28;20435;-66
2022/08/22 10:07:59;;;;;;;6.22;1.45;;;;;;;;;;5012497;28;20052;-68
2022/08/22 10:10:53;;;;;;;5.07;1.67;;;;;;;;;;5013441;28;20061;-71
2022/08/22 10:13:44;;;;;;;6.47;1.95;;;;;;;;;;5014288;28;20060;-70
2022/08/22 10:16:46;;;;;;;3.28;1.30;;;;;;;;;;5014013;28;20073;-68
2022/08/22 10:19:21;;;;;;;5.53;1.60;;;;;;;;;;5013293;28;20049;-66
2022/08/22 10:22:17;;;;;;;2.95;1.52;;;;;;;;;;5012998;28;20082;-66
2022/08/22 10:24:55;;;;;;;7.18;2.13;;;;;;;;;;5013383;28;20111;-67
2022/08/22 10:27:46;;;;;;;5.07;1.58;;;;;;;;;;5013533;28;20510;-66
2022/08/22 10:30:42;;;;;;;5.53;1.80;;;;;;;;;;5014077;28;20060;-66
2022/08/22 10:33:34;;;;;;;4.65;1.70;;;;;;;;;;5008152;28;20064;-66
2022/08/22 10:36:11;;;;;;;5.20;1.50;;;;;;;;;;5013101;28;20053;-68
2022/08/22 10:38:52;;;;;;;5.05;1.98;;;;;;;;;;5014100;28;20077;-66
2022/08/22 10:41:34;;;;;;;4.28;1.92;;;;;;;;;;5012496;28;20050;-66
2022/08/22 10:44:15;;;;;;;7.35;1.98;;;;;;;;;;5027693;28;20141;-66
2022/08/22 10:47:04;;;;;;;4.68;1.65;;;;;;;;;;5012783;28;20053;-66
2022/08/22 10:49:43;;;;;;;4.43;1.90;;;;;;;;;;5014274;28;20069;-67
2022/08/22 10:52:17;;;;;;;3.70;1.52;;;;;;;;;;5020140;28;20073;-69
2022/08/22 10:54:47;;;;;;;3.55;1.98;;;;;;;;;;5050208;28;20051;-68
2022/08/22 10:57:22;;;;;;;5.28;1.73;;;;;;;;;;5035211;28;20055;-68
2022/08/22 11:00:07;;;;;;;4.30;1.58;;;;;;;;;;5032529;28;20474;-66
2022/08/22 11:03:11;;;;;;;3.80;1.65;;;;;;;;;;5031578;28;20053;-67
2022/08/22 11:05:40;;;;;;;4.00;1.52;;;;;;;;;;5001831;28;20455;-65
2022/08/22 11:08:38;;;;;;;4.20;1.80;;;;;;;;;;5032369;28;20049;-66
2022/08/22 11:11:18;;;;;;;4.75;1.60;;;;;;;;;;5032585;28;20053;-65
2022/08/22 11:14:14;;;;;;;5.18;1.52;;;;;;;;;;5032078;28;20058;-66
2022/08/22 11:16:57;;;;;;;8.50;1.58;;;;;;;;;;5009118;28;20052;-66
2022/08/22 11:19:47;;;;;;;;;;;;;;;;;;5032316;28;20049;-72
2022/08/22 11:22:22;;;;;;;4.82;1.38;;;;;;;;;;5023771;28;19948;-66
2022/08/22 11:25:13;;;;;;;7.35;1.67;;;;;;;;;;5031912;28;20053;-65
2022/08/22 11:27:47;;;;;;;5.40;1.63;;;;;;;;;;5031749;28;20045;-66
2022/08/22 11:30:13;;;;;;;7.90;1.75;;;;;;;;;;5032151;28;20045;-66
2022/08/22 11:33:05;;;;;;;5.10;1.58;;;;;;;;;;5032190;28;20049;-67
2022/08/22 11:35:53;;;;;;;7.45;1.95;;;;;;;;;;5032086;28;20054;-64
2022/08/22 11:38:57;;;;;;;4.25;1.35;;;;;;;;;;5032154;28;20426;-66
2022/08/22 11:41:46;;;;;;;4.47;1.60;;;;;;;;;;5031920;28;20045;-66
2022/08/22 11:44:27;;;;;;;6.30;1.63;;;;;;;;;;5031844;28;20068;-66
2022/08/22 11:46:57;;;;;;;11.27;2.10;;;;;;;;;;5032250;28;20064;-66
2022/08/22 11:49:26;;;;;;;7.10;2.17;;;;;;;;;;5031917;28;20056;-67
2022/08/22 11:52:13;;;;;;;4.65;1.40;;;;;;;;;;5031724;28;20410;-65
2022/08/22 11:54:55;;;;;;;7.50;1.70;;;;;;;;;;5031189;28;20145;-64
2022/08/22 11:57:41;;;;;;;6.35;1.42;;;;;;;;;;5035895;28;20053;-66
2022/08/22 12:00:11;;;;;;;10.23;1.83;;;;;;;;;;5036825;28;20049;-66
2022/08/22 12:02:37;;;;;;;4.68;1.90;;;;;;;;;;5006136;28;20042;-66
2022/08/22 12:05:11;;;;;;;6.60;1.63;;;;;;;;;;5037277;28;20054;-70
2022/08/22 12:07:42;;;;;;;25.48;1.80;;;;;;;;;;5038177;28;20045;-65
2022/08/22 12:10:20;;;;;;;7.00;1.73;;;;;;;;;;5038443;28;20046;-66
2022/08/22 12:12:46;;;;;;;4.45;1.80;;;;;;;;;;5036760;28;20045;-68
2022/08/22 12:15:21;;;;;;;6.20;1.60;;;;;;;;;;5035665;28;20487;-68
2022/08/22 12:17:56;;;;;;;3.70;1.42;;;;;;;;;;5035402;28;20049;-65
2022/08/22 12:20:40;;;;;;;5.22;1.45;;;;;;;;;;5035227;28;20045;-71
2022/08/22 12:23:24;;;;;;;5.95;1.42;;;;;;;;;;5033721;28;20056;-67
2022/08/22 12:26:25;;;;;;;6.85;1.20;;;;;;;;;;5015021;28;20050;-65
2022/08/22 12:29:21;;;;;;;7.28;1.70;;;;;;;;;;4976033;28;20058;-66
2022/08/22 12:32:05;;;;;;;4.00;1.40;;;;;;;;;;5036181;28;20100;-66
2022/08/22 12:34:50;;;;;;;5.05;1.50;;;;;;;;;;5035943;28;20042;-69
2022/08/22 12:37:41;;;;;;;3.90;1.30;;;;;;;;;;5036513;28;20065;-66
2022/08/22 12:40:13;;;;;;;5.80;1.52;;;;;;;;;;5035687;28;20068;-68
2022/08/22 12:43:02;;;;;;;7.22;1.73;;;;;;;;;;5035380;28;20046;-72
2022/08/22 12:45:52;;;;;;;5.65;1.75;;;;;;;;;;4995260;28;20140;-66
2022/08/22 12:48:56;;;;;;;5.18;1.48;;;;;;;;;;5035337;28;20529;-67
2022/08/22 12:51:49;;;;;;;11.18;1.45;;;;;;;;;;5016432;28;20057;-66
2022/08/22 12:54:45;;;;;;;4.65;1.30;;;;;;;;;;5016156;28;20133;-69
2022/08/22 12:57:23;;;;;;;9.93;1.92;;;;;;;;;;5018685;28;20137;-67
2022/08/22 12:59:58;;;;;;;3.72;1.58;;;;;;;;;;5016086;28;20050;-67
2022/08/22 13:02:31;;;;;;;7.15;1.30;;;;;;;;;;5016044;28;20085;-68
2022/08/22 13:05:02;;;;;;;4.18;1.30;;;;;;;;;;5018892;28;20049;-67
2022/08/22 13:07:31;;;;;;;2.30;1.00;;;;;;;;;;5034249;28;20137;-67
2022/08/22 13:10:31;;;;;;;4.60;1.38;;;;;;;;;;5034047;28;20107;-68
2022/08/22 13:12:58;;;;;;;3.88;1.15;;;;;;;;;;5032691;28;20069;-66
2022/08/22 13:15:27;;;;;;;7.13;1.52;;;;;;;;;;5033725;28;20077;-68
2022/08/22 13:17:55;;;;;;;4.63;1.35;;;;;;;;;;5034458;28;20568;-66
2022/08/22 13:20:31;;;;;;;2.92;1.25;;;;;;;;;;5035757;28;20053;-70
2022/08/22 13:22:59;;;;;;;4.40;1.38;;;;;;;;;;5035743;28;20049;-65
2022/08/22 13:25:29;;;;;;;6.25;1.50;;;;;;;;;;5029864;28;20053;-67
2022/08/22 13:27:59;;;;;;;2.25;1.00;;;;;;;;;;5034426;28;20045;-66
2022/08/22 13:30:33;;;;;;;3.08;1.15;;;;;;;;;;5033563;28;20053;-66
2022/08/22 13:33:26;;;;;;;2.42;0.90;;;;;;;;;;5033676;28;20049;-65
2022/08/22 13:36:01;;;;;;;2.92;1.00;;;;;;;;;;5026793;28;20121;-66
2022/08/22 13:38:39;;;;;;;3.40;1.17;;;;;;;;;;5033398;28;20072;-67
2022/08/22 13:41:07;;;;;;;3.47;1.40;;;;;;;;;;5034236;28;20102;-67
2022/08/22 13:43:59;;;;;;;7.07;1.50;;;;;;;;;;5035844;28;20046;-66
2022/08/22 13:46:29;;;;;;;5.32;1.15;;;;;;;;;;5035667;28;20053;-67
2022/08/22 13:48:58;;;;;;;7.20;1.15;;;;;;;;;;5015858;28;20457;-69
2022/08/22 13:52:07;;;;;;;2.47;1.05;;;;;;;;;;5033198;28;20140;-66
2022/08/22 13:54:45;;;;;;;3.78;1.20;;;;;;;;;;5033183;28;20056;-66
2022/08/22 13:57:24;;;;;;;5.88;1.35;;;;;;;;;;5033277;28;20041;-65
2022/08/22 14:00:12;;;;;;;5.38;1.30;;;;;;;;;;5032556;28;20057;-69
2022/08/22 14:02:56;;;;;;;3.00;1.15;;;;;;;;;;5032777;28;20163;-65
2022/08/22 14:05:25;;;;;;;3.28;1.27;;;;;;;;;;5032136;28;20486;-66
2022/08/22 14:08:09;;;;;;;3.75;1.20;;;;;;;;;;5021039;28;20061;-66
2022/08/22 14:10:40;;;;;;;4.68;0.90;;;;;;;;;;5012206;28;20455;-65
2022/08/22 14:13:21;;;;;;;4.63;1.10;;;;;;;;;;5012335;28;20045;-65
2022/08/22 14:15:47;;;;;;;5.32;1.10;;;;;;;;;;5011958;28;20521;-71
2022/08/22 14:18:19;;;;;;;6.60;1.30;;;;;;;;;;5012129;28;20046;-67
2022/08/22 14:20:46;;;;;;;8.70;1.40;;;;;;;;;;5013080;28;20362;-66
2022/08/22 14:23:23;;;;;;;2.90;1.00;;;;;;;;;;5013300;28;20074;-68
2022/08/22 14:25:50;;;;;;;5.13;1.17;;;;;;;;;;5013396;28;20088;-70
2022/08/22 14:28:28;;;;;;;4.93;1.20;;;;;;;;;;5014607;28;20169;-66
2022/08/22 14:31:06;;;;;;;3.55;1.30;;;;;;;;;;5014753;28;20513;-66
2022/08/22 14:33:45;;;;;;;5.55;1.45;;;;;;;;;;5012812;28;20509;-66
2022/08/22 14:36:24;;;;;;;4.25;1.33;;;;;;;;;;5012305;28;20078;-65
2022/08/22 14:38:56;;;;;;;4.68;1.23;;;;;;;;;;5012268;28;20053;-66
2022/08/22 14:41:35;;;;;;;3.55;1.10;;;;;;;;;;5012475;28;20046;-66
2022/08/22 14:44:04;;;;;;;5.47;1.33;;;;;;;;;;5013230;28;20101;-73
2022/08/22 14:46:43;;;;;;;4.43;1.10;;;;;;;;;;5022140;28;20505;-67
2022/08/22 14:49:15;;;;;;;5.75;1.50;;;;;;;;;;5032779;28;20490;-67
2022/08/22 14:51:49;;;;;;;7.88;1.30;;;;;;;;;;5033518;28;20045;-66
2022/08/22 14:54:18;;;;;;;4.65;1.40;;;;;;;;;;5032982;28;20099;-73
2022/08/22 14:56:47;;;;;;;6.80;1.40;;;;;;;;;;5033319;28;20049;-71
2022/08/22 14:59:27;;;;;;;5.07;1.25;;;;;;;;;;5014905;28;20064;-66
2022/08/22 15:02:01;;;;;;;4.43;1.27;;;;;;;;;;5033318;28;20473;-64
2022/08/22 15:04:34;;;;;;;4.68;1.00;;;;;;;;;;5032006;28;20064;-67
2022/08/22 15:07:01;;;;;;;5.32;1.02;;;;;;;;;;5032019;28;20145;-66
2022/08/22 15:09:47;;;;;;;5.22;1.25;;;;;;;;;;5031726;28;20147;-66
2022/08/22 15:12:29;;;;;;;4.25;1.27;;;;;;;;;;5031838;28;20049;-66
2022/08/22 15:14:59;;;;;;;6.13;1.40;;;;;;;;;;5032926;28;20098;-69
2022/08/22 15:17:43;;;;;;;5.00;1.20;;;;;;;;;;5034837;28;20079;-67
2022/08/22 15:20:17;;;;;;;5.47;1.40;;;;;;;;;;5032681;28;20379;-65
2022/08/22 15:22:45;;;;;;;7.80;1.60;;;;;;;;;;5032054;28;20049;-67
2022/08/22 15:25:17;;;;;;;4.28;1.33;;;;;;;;;;5019929;28;20042;-69
2022/08/22 15:27:48;;;;;;;6.55;1.38;;;;;;;;;;5011664;28;20149;-67
2022/08/22 15:30:16;;;;;;;3.65;1.23;;;;;;;;;;5013973;28;20045;-68
2022/08/22 15:32:44;;;;;;;4.90;1.20;;;;;;;;;;5031408;28;20042;-66
2022/08/22 15:35:12;;;;;;;8.13;1.60;;;;;;;;;;5015119;28;20060;-67
2022/08/22 15:37:57;;;;;;;8.60;1.50;;;;;;;;;;5015221;28;20513;-66
2022/08/22 15:40:43;;;;;;;2.83;1.10;;;;;;;;;;5015031;28;20100;-67
2022/08/22 15:43:14;;;;;;;4.95;0.95;;;;;;;;;;5034277;28;20053;-67
2022/08/22 15:45:41;;;;;;;6.45;1.30;;;;;;;;;;5036168;28;20141;-67
2022/08/22 15:48:23;;;;;;;6.00;1.17;;;;;;;;;;5036644;28;20491;-67
2022/08/22 15:50:55;;;;;;;3.70;1.40;;;;;;;;;;5035998;28;20059;-66
2022/08/22 15:53:43;;;;;;;3.47;1.13;;;;;;;;;;5035070;28;20041;-75
2022/08/22 15:56:11;;;;;;;5.25;1.40;;;;;;;;;;5034624;28;20494;-66
2022/08/22 15:58:46;;;;;;;4.07;1.13;;;;;;;;;;5028394;28;20045;-70
2022/08/22 16:01:18;;;;;;;3.97;1.00;;;;;;;;;;5015269;28;20148;-66
2022/08/22 16:03:57;;;;;;;4.70;1.40;;;;;;;;;;5015147;28;20070;-68
2022/08/22 16:06:47;;;;;;;2.47;1.20;;;;;;;;;;5015770;28;20129;-73
2022/08/22 16:09:40;;;;;;;3.42;1.35;;;;;;;;;;5034341;28;20055;-69
2022/08/22 16:12:23;;;;;;;3.30;1.13;;;;;;;;;;5035250;28;20069;-67